createdAt,value
2023-04-15T00:00:58.559Z,100015.88
2023-04-15T00:03:28.777Z,100008.66
2023-04-15T00:05:55.543Z,100022.50
2023-04-15T00:08:22.217Z,99999.50
2023-04-15T00:10:49.406Z,100015.22
2023-04-15T00:13:16.718Z,100032.38
2023-04-15T00:15:43.459Z,100003.59
2023-04-15T00:18:10.199Z,100047.75
2023-04-15T00:20:37.475Z,100007.66
2023-04-15T00:23:04.493Z,99997.31
2023-04-15T00:25:31.624Z,100016.28
2023-04-15T00:27:58.500Z,100008.03
2023-04-15T00:30:25.800Z,100012.78
2023-04-15T00:32:52.870Z,99992.19
2023-04-15T00:35:19.567Z,99997.00
2023-04-15T00:37:46.552Z,99990.06
2023-04-15T00:40:14.168Z,99999.13
2023-04-15T00:42:41.283Z,99997.22
2023-04-15T00:45:09.089Z,99997.53
2023-04-15T00:47:37.750Z,99991.47
2023-04-15T00:50:05.165Z,99992.16
2023-04-15T00:52:32.670Z,100027.72
2023-04-15T00:55:06.749Z,99983.66
2023-04-15T00:57:36.906Z,100027.47
2023-04-15T01:00:05.883Z,99984.00
2023-04-15T01:02:33.528Z,99986.84
2023-04-15T01:05:00.687Z,99974.31
2023-04-15T01:07:27.316Z,99984.56
2023-04-15T01:09:54.197Z,99980.94
2023-04-15T01:12:21.289Z,99981.09
2023-04-15T01:14:48.648Z,100021.19
2023-04-15T01:17:15.363Z,100004.00
2023-04-15T01:19:42.482Z,99991.09
2023-04-15T01:22:11.756Z,99980.50
2023-04-15T01:24:40.194Z,99970.81
2023-04-15T01:27:07.193Z,99982.81
2023-04-15T01:29:38.574Z,99987.31
2023-04-15T01:32:05.972Z,99978.88
2023-04-15T01:34:41.671Z,99988.00
2023-04-15T01:51:09.261Z,99966.50
2023-04-15T01:53:45.903Z,99971.41
2023-04-15T01:56:16.813Z,99980.84
2023-04-15T01:58:43.746Z,99960.41
2023-04-15T02:01:11.525Z,100003.25
2023-04-15T02:03:40.032Z,99967.44
2023-04-15T02:06:07.882Z,99978.13
2023-04-15T02:08:42.726Z,99954.53
2023-04-15T02:11:09.587Z,99990.03
2023-04-15T02:13:37.464Z,99956.63
2023-04-15T02:16:05.076Z,99966.53
2023-04-15T02:18:33.949Z,99957.91
2023-04-15T02:21:01.132Z,99957.06
2023-04-15T02:23:28.319Z,99960.22
2023-04-15T02:26:00.909Z,100006.66
2023-04-15T02:28:29.312Z,99964.41
2023-04-15T02:30:59.610Z,99953.25
2023-04-15T02:33:29.457Z,99963.50
2023-04-15T02:35:56.315Z,99962.72
2023-04-15T02:38:24.392Z,99957.06
2023-04-15T02:40:51.738Z,99964.69
2023-04-15T02:43:18.506Z,99964.81
2023-04-15T02:45:45.889Z,100007.09
2023-04-15T02:48:15.646Z,99961.09
2023-04-15T02:50:42.896Z,99971.94
2023-04-15T02:53:10.521Z,100018.75
2023-04-15T02:55:37.244Z,100004.28
2023-04-15T02:58:04.942Z,100014.25
2023-04-15T03:00:37.132Z,99969.59
2023-04-15T03:03:07.605Z,99974.25
2023-04-15T03:05:34.751Z,100014.94
2023-04-15T03:08:06.499Z,99972.16
2023-04-15T03:10:33.643Z,100021.34
2023-04-15T03:13:07.155Z,99977.47
2023-04-15T03:15:34.840Z,99974.25
2023-04-15T03:18:08.504Z,99989.38
2023-04-15T03:20:39.052Z,99975.44
2023-04-15T03:23:17.683Z,99980.78
2023-04-15T03:26:03.418Z,99968.28
2023-04-15T03:31:16.201Z,99997.22
2023-04-15T03:33:49.764Z,99981.59
2023-04-15T03:36:21.192Z,99981.47
2023-04-15T03:38:52.021Z,100014.25
2023-04-15T03:41:19.361Z,100004.34
2023-04-15T03:43:47.877Z,99982.09
2023-04-15T03:46:20.413Z,99979.53
2023-04-15T03:48:48.547Z,99979.06
2023-04-15T03:51:18.431Z,99979.34
2023-04-15T03:53:47.367Z,100004.16
2023-04-15T03:56:20.839Z,99968.19
2023-04-15T03:58:48.263Z,100026.41
2023-04-15T04:01:16.632Z,100013.69
2023-04-15T04:03:43.615Z,100013.31
2023-04-15T04:06:18.718Z,99972.31
2023-04-15T04:08:46.953Z,99977.13
2023-04-15T04:11:14.102Z,100007.19
2023-04-15T04:13:42.635Z,99982.13
2023-04-15T04:16:10.426Z,99972.72
2023-04-15T04:18:38.070Z,99984.66
2023-04-15T04:21:04.912Z,100008.81
2023-04-15T04:23:31.758Z,100032.41
2023-04-15T04:25:58.733Z,99987.22
2023-04-15T04:28:36.474Z,100015.69
2023-04-15T04:31:05.526Z,100003.31
2023-04-15T04:33:37.268Z,99982.84
2023-04-15T04:36:08.007Z,99987.75
2023-04-15T04:38:43.746Z,99988.50
2023-04-15T04:41:12.775Z,100019.75
2023-04-15T04:43:39.779Z,100015.97
2023-04-15T04:46:09.003Z,99994.69
2023-04-15T04:48:36.368Z,100007.47
2023-04-15T04:51:06.653Z,99991.50
2023-04-15T04:53:33.907Z,99982.56
2023-04-15T04:56:05.351Z,99998.03
2023-04-15T04:58:35.878Z,100026.53
2023-04-15T05:01:03.590Z,100042.56
2023-04-15T05:03:30.488Z,100008.88
2023-04-15T05:05:59.868Z,100007.41
2023-04-15T05:08:33.208Z,100008.03
2023-04-15T05:11:00.330Z,100030.50
2023-04-15T05:13:27.216Z,100012.19
2023-04-15T05:15:55.063Z,100037.22
2023-04-15T05:18:21.975Z,100019.03
2023-04-15T05:20:50.233Z,100059.25
2023-04-15T05:23:18.165Z,100018.72
2023-04-15T05:25:45.439Z,100014.91
2023-04-15T05:28:15.622Z,100017.97
2023-04-15T05:30:42.449Z,100021.03
2023-04-15T05:33:09.203Z,100068.13
2023-04-15T05:35:37.074Z,100052.41
2023-04-15T05:38:03.811Z,100025.72
2023-04-15T05:40:31.093Z,100063.63
2023-04-15T05:42:57.794Z,100029.84
2023-04-15T05:45:24.407Z,100052.25
2023-04-15T05:47:55.212Z,100064.81
2023-04-15T05:50:22.382Z,100023.38
2023-04-15T05:52:49.583Z,100049.72
2023-04-15T05:55:16.711Z,100067.88
2023-04-15T05:57:43.466Z,100057.69
2023-04-15T06:00:10.398Z,100077.50
2023-04-15T06:02:37.385Z,100056.59
2023-04-15T06:05:04.589Z,100033.97
2023-04-15T06:07:31.304Z,100029.91
2023-04-15T06:10:00.946Z,100053.47
2023-04-15T06:12:28.811Z,100048.69
2023-04-15T06:14:55.526Z,100036.84
2023-04-15T06:17:22.247Z,100068.28
2023-04-15T06:19:51.105Z,100025.88
2023-04-15T06:22:17.669Z,100050.16
2023-04-15T06:24:45.368Z,100051.06
2023-04-15T06:27:13.434Z,100068.84
2023-04-15T06:29:40.467Z,100035.06
2023-04-15T06:32:07.247Z,100063.91
2023-04-15T06:34:33.748Z,100077.44
2023-04-15T06:37:01.464Z,100031.84
2023-04-15T06:39:28.242Z,100030.31
2023-04-15T06:41:55.206Z,100074.19
2023-04-15T06:44:22.155Z,100068.13
2023-04-15T06:46:51.834Z,100045.50
2023-04-15T06:49:21.040Z,100039.28
2023-04-15T06:51:47.892Z,100052.97
2023-04-15T06:54:14.568Z,100041.28
2023-04-15T06:56:43.819Z,100047.34
2023-04-15T06:59:11.085Z,100046.03
2023-04-15T07:01:37.963Z,100044.00
2023-04-15T07:04:04.848Z,100052.38
2023-04-15T07:06:32.840Z,100070.84
2023-04-15T07:09:03.788Z,100067.19
2023-04-15T07:11:30.988Z,100109.38
2023-04-15T07:14:04.274Z,100102.69
2023-04-15T07:16:31.356Z,100074.63
2023-04-15T07:19:00.664Z,100069.00
2023-04-15T07:21:27.980Z,100076.19
2023-04-15T07:23:55.009Z,100102.44
2023-04-15T07:26:27.821Z,100106.81
2023-04-15T07:28:55.946Z,100093.09
2023-04-15T07:31:22.870Z,100092.25
2023-04-15T07:33:49.806Z,100140.50
2023-04-15T07:36:16.916Z,100140.13
2023-04-15T07:38:47.316Z,100099.00
2023-04-15T07:41:14.444Z,100111.09
2023-04-15T07:43:43.790Z,100106.75
2023-04-15T07:46:14.761Z,100096.84
2023-04-15T07:48:41.975Z,100106.50
2023-04-15T07:51:08.794Z,100150.97
2023-04-15T07:53:35.674Z,100151.56
2023-04-15T07:56:02.170Z,100133.06
2023-04-15T07:58:28.808Z,100141.50
2023-04-15T08:00:55.566Z,100139.88
2023-04-15T08:03:22.960Z,100151.81
2023-04-15T08:05:50.764Z,100106.31
2023-04-15T08:08:25.583Z,100107.53
2023-04-15T08:10:53.517Z,100154.94
2023-04-15T08:13:23.463Z,100107.78
2023-04-15T08:16:23.806Z,100120.31
2023-04-15T08:18:52.328Z,100149.25
2023-04-15T08:21:20.519Z,100140.13
2023-04-15T08:23:50.374Z,100147.94
2023-04-15T08:26:17.808Z,100142.44
2023-04-15T08:28:46.153Z,100123.97
2023-04-15T08:31:26.791Z,100120.56
2023-04-15T08:34:07.819Z,100139.63
2023-04-15T08:36:51.074Z,100182.19
2023-04-15T08:39:25.808Z,100159.84
2023-04-15T08:42:09.799Z,100162.88
2023-04-15T08:47:56.180Z,100144.38
2023-04-15T08:50:31.734Z,100141.72
2023-04-15T08:53:10.621Z,100134.56
2023-04-15T08:55:51.567Z,100146.44
2023-04-15T08:58:21.221Z,100151.81
2023-04-15T09:00:57.782Z,100138.66
2023-04-15T09:03:25.070Z,100165.16
2023-04-15T09:05:53.277Z,100184.50
2023-04-15T09:08:19.933Z,100185.88
2023-04-15T09:10:48.715Z,100152.41
2023-04-15T09:13:31.129Z,100146.47
2023-04-15T09:16:17.243Z,100175.91
2023-04-15T09:18:47.839Z,100147.81
2023-04-15T09:21:35.959Z,100172.97
2023-04-15T09:24:07.718Z,100150.94
2023-04-15T09:26:45.558Z,100193.53
2023-04-15T09:29:16.318Z,100156.66
2023-04-15T09:31:44.639Z,100176.00
2023-04-15T09:34:11.791Z,100178.09
2023-04-15T09:36:51.132Z,100204.59
2023-04-15T09:39:21.828Z,100168.56
2023-04-15T09:42:07.424Z,100155.22
2023-04-15T09:44:34.492Z,100173.69
2023-04-15T09:47:06.448Z,100164.84
2023-04-15T09:49:37.237Z,100183.81
2023-04-15T09:52:12.392Z,100181.50
2023-04-15T09:54:58.917Z,100167.88
2023-04-15T09:58:40.804Z,100192.16
2023-04-15T10:08:03.865Z,100237.44
2023-04-15T10:10:46.921Z,100194.44
2023-04-15T10:14:25.936Z,100237.84
2023-04-15T10:17:03.550Z,100211.25
2023-04-15T10:19:43.104Z,100201.53
2023-04-15T10:22:24.297Z,100201.56
2023-04-15T10:24:59.232Z,100199.69
2023-04-15T10:27:28.039Z,100197.22
2023-04-15T10:30:01.136Z,100205.28
2023-04-15T10:32:31.522Z,100204.91
2023-04-15T10:35:06.213Z,100201.75
2023-04-15T10:37:48.558Z,100213.19
2023-04-15T10:40:54.396Z,100241.31
2023-04-15T10:43:33.698Z,100205.56
2023-04-15T10:46:28.723Z,100219.91
2023-04-15T10:49:37.141Z,100204.97
2023-04-15T10:52:15.334Z,100259.03
2023-04-15T10:55:38.584Z,100222.41
2023-04-15T10:58:21.394Z,100209.72
2023-04-15T11:04:58.859Z,100252.69
2023-04-15T11:08:09.526Z,100267.50
2023-04-15T11:10:50.957Z,100270.09
2023-04-15T11:13:36.179Z,100267.44
2023-04-15T11:17:02.616Z,100230.78
2023-04-15T11:19:59.052Z,100227.06
2023-04-15T11:22:37.062Z,100250.06
2023-04-15T11:25:15.157Z,100283.69
2023-04-15T11:31:15.308Z,100252.50
2023-04-15T11:41:49.575Z,100258.03
2023-04-15T12:05:02.901Z,100276.47
2023-04-15T12:07:59.766Z,100275.81
2023-04-15T12:11:12.376Z,100281.19
2023-04-15T12:13:54.195Z,100278.66
2023-04-15T12:16:30.208Z,100280.06
2023-04-15T12:19:43.296Z,100331.78
2023-04-15T12:22:31.951Z,100292.16
2023-04-15T12:25:01.852Z,100293.88
2023-04-15T12:28:16.034Z,100290.81
2023-04-15T12:31:05.914Z,100295.41
2023-04-15T12:33:36.359Z,100327.41
2023-04-15T12:36:10.187Z,100293.63
2023-04-15T12:38:37.629Z,100327.44
2023-04-15T12:41:04.903Z,100308.81
2023-04-15T12:46:41.678Z,100312.09
2023-04-15T12:49:14.189Z,100309.38
2023-04-15T12:51:41.337Z,100317.13
2023-04-15T12:54:12.062Z,100326.59
2023-04-15T12:56:40.077Z,100323.41
2023-04-15T12:59:10.518Z,100327.31
2023-04-15T13:01:40.826Z,100328.16
2023-04-15T13:04:08.706Z,100329.09
2023-04-15T13:06:36.380Z,100331.72
2023-04-15T13:09:14.404Z,100327.41
2023-04-15T13:11:54.378Z,100365.63
2023-04-15T13:14:22.277Z,100329.72
2023-04-15T13:16:49.651Z,100373.19
2023-04-15T13:19:20.003Z,100332.53
2023-04-15T13:21:51.574Z,100334.34
2023-04-15T13:24:20.041Z,100341.28
2023-04-15T13:26:55.565Z,100341.19
2023-04-15T13:29:32.130Z,100357.81
2023-04-15T13:32:03.432Z,100334.59
2023-04-15T13:34:30.890Z,100367.16
2023-04-15T13:37:11.638Z,100365.16
2023-04-15T13:39:41.998Z,100387.00
2023-04-15T13:42:12.842Z,100403.16
2023-04-15T13:44:40.319Z,100356.75
2023-04-15T13:47:14.016Z,100345.91
2023-04-15T13:49:43.769Z,100357.25
2023-04-15T13:52:15.527Z,100376.34
2023-04-15T13:54:42.642Z,100386.28
2023-04-15T13:57:09.619Z,100357.06
2023-04-15T13:59:36.944Z,100356.13
2023-04-15T14:02:04.330Z,100365.66
2023-04-15T14:04:32.383Z,100369.47
2023-04-15T14:09:48.741Z,100409.03
2023-04-15T14:12:21.976Z,100410.97
2023-04-15T14:14:49.087Z,100378.38
2023-04-15T14:17:16.442Z,100385.28
2023-04-15T14:19:48.127Z,100408.75
2023-04-15T14:22:16.290Z,100379.84
2023-04-15T14:24:45.833Z,100394.38
2023-04-15T14:27:12.970Z,100393.97
2023-04-15T14:29:40.046Z,100424.31
2023-04-15T14:32:12.034Z,100400.97
2023-04-15T14:34:44.980Z,100403.56
2023-04-15T14:37:11.792Z,100404.66
2023-04-15T14:39:39.896Z,100459.63
2023-04-15T14:42:06.768Z,100406.88
2023-04-15T14:44:33.951Z,100407.63
2023-04-15T14:47:05.862Z,100461.34
2023-04-15T14:49:41.612Z,100415.56
2023-04-15T14:52:12.490Z,100431.72
2023-04-15T14:54:39.275Z,100414.19
2023-04-15T14:57:06.171Z,100464.31
2023-04-15T14:59:38.036Z,100420.06
2023-04-15T15:02:06.280Z,100415.56
2023-04-15T15:04:33.625Z,100428.97
2023-04-15T15:07:02.783Z,100428.78
2023-04-15T15:09:35.313Z,100424.06
2023-04-15T15:12:09.279Z,100479.38
2023-04-15T15:14:41.330Z,100449.13
2023-04-15T15:17:10.303Z,100443.22
2023-04-15T15:19:40.585Z,100447.78
2023-04-15T15:22:09.038Z,100480.88
2023-04-15T15:24:35.580Z,100471.72
2023-04-15T15:27:02.906Z,100493.56
2023-04-15T15:29:29.542Z,100503.72
2023-04-15T15:31:56.607Z,100502.19
2023-04-15T15:34:23.186Z,100468.38
2023-04-15T15:36:49.715Z,100495.09
2023-04-15T15:39:16.406Z,100477.44
2023-04-15T15:41:42.821Z,100507.38
2023-04-15T15:44:09.831Z,100473.28
2023-04-15T15:46:36.603Z,100481.69
2023-04-15T15:49:04.257Z,100516.03
2023-04-15T15:51:32.219Z,100483.75
2023-04-15T15:53:58.778Z,100490.53
2023-04-15T15:56:28.756Z,100493.91
2023-04-15T15:58:55.659Z,100512.50
2023-04-15T16:01:24.195Z,100484.22
2023-04-15T16:03:55.212Z,100508.16
2023-04-15T16:06:24.549Z,100516.09
2023-04-15T16:08:51.317Z,100486.78
2023-04-15T16:11:17.962Z,100524.88
2023-04-15T16:13:44.532Z,100515.53
2023-04-15T16:16:11.919Z,100525.53
2023-04-15T16:18:44.991Z,100498.16
2023-04-15T16:21:12.491Z,100507.03
2023-04-15T16:23:41.176Z,100532.13
2023-04-15T16:26:08.513Z,100493.44
2023-04-15T16:28:38.093Z,100504.31
2023-04-15T16:31:05.016Z,100500.69
2023-04-15T16:33:32.703Z,100500.59
2023-04-15T16:36:02.620Z,100544.91
2023-04-15T16:38:29.201Z,100497.50
2023-04-15T16:41:00.589Z,100518.25
2023-04-15T16:43:33.225Z,100516.38
2023-04-15T16:46:00.232Z,100513.06
2023-04-15T16:48:28.197Z,100562.50
2023-04-15T16:50:55.242Z,100520.88
2023-04-15T16:53:25.283Z,100523.75
2023-04-15T16:55:52.319Z,100519.28
2023-04-15T16:58:19.248Z,100524.19
2023-04-15T17:00:46.876Z,100525.63
2023-04-15T17:03:13.609Z,100565.47
2023-04-15T17:05:42.593Z,100547.78
2023-04-15T17:08:09.494Z,100531.19
2023-04-15T17:10:36.370Z,100549.97
2023-04-15T17:13:03.030Z,100581.75
2023-04-15T17:15:31.506Z,100543.09
2023-04-15T17:18:00.665Z,100548.91
2023-04-15T17:20:27.737Z,100549.94
2023-04-15T17:23:02.176Z,100554.97
2023-04-15T17:25:48.819Z,100591.81
2023-04-15T17:28:41.045Z,100562.56
2023-04-15T17:31:21.750Z,100581.78
2023-04-15T17:34:00.054Z,100571.56
2023-04-15T17:36:35.779Z,100570.69
2023-04-15T17:39:07.858Z,100620.22
2023-04-15T17:41:34.600Z,100582.03
2023-04-15T17:44:01.366Z,100605.78
2023-04-15T17:46:27.945Z,100624.59
2023-04-15T17:48:54.686Z,100621.50
2023-04-15T17:51:21.844Z,100598.59
2023-04-15T17:53:48.826Z,100607.69
2023-04-15T17:56:15.929Z,100601.50
2023-04-15T17:58:43.710Z,100600.22
2023-04-15T18:01:13.697Z,100599.44
2023-04-15T18:04:09.057Z,100602.47
2023-04-15T18:06:36.422Z,100632.00
2023-04-15T18:09:07.316Z,100625.56
2023-04-15T18:11:34.009Z,100610.38
2023-04-15T18:14:03.235Z,100617.97
2023-04-15T18:16:30.294Z,100643.09
2023-04-15T18:18:57.265Z,100623.84
2023-04-15T18:21:24.075Z,100625.47
2023-04-15T18:23:51.596Z,100680.34
2023-04-15T18:26:18.267Z,100644.72
2023-04-15T18:28:44.840Z,100666.53
2023-04-15T18:31:14.548Z,100641.50
2023-04-15T18:33:41.151Z,100667.69
2023-04-15T18:36:10.571Z,100701.31
2023-04-15T18:38:37.313Z,100684.63
2023-04-15T18:41:05.488Z,100700.69
2023-04-15T18:43:49.490Z,100656.91
2023-04-15T18:46:27.739Z,100668.75
2023-04-15T18:48:57.211Z,100673.59
2023-04-15T18:55:29.618Z,100684.38
2023-04-15T18:59:26.114Z,100707.28
2023-04-15T19:01:40.801Z,100708.34
2023-04-15T19:04:14.095Z,100673.44
2023-04-15T19:07:14.047Z,100687.88
2023-04-15T19:09:53.372Z,100712.19
2023-04-15T19:15:34.851Z,100706.53
2023-04-15T19:18:01.928Z,100714.97
2023-04-15T19:20:31.589Z,100698.16
2023-04-15T19:23:02.976Z,100698.78
2023-04-15T19:25:40.771Z,100718.47
2023-04-15T19:28:24.676Z,100704.06
2023-04-15T19:33:37.251Z,100735.44
2023-04-15T19:36:10.650Z,100748.91
2023-04-15T19:38:40.109Z,100749.44
2023-04-15T19:41:11.201Z,100753.34
2023-04-15T19:43:49.306Z,100722.63
2023-04-15T19:46:24.800Z,100733.56
2023-04-15T19:49:09.196Z,100717.66
2023-04-15T19:51:36.201Z,100728.22
2023-04-15T19:54:06.166Z,100717.88
2023-04-15T19:56:35.361Z,100751.91
2023-04-15T19:59:05.741Z,100741.03
2023-04-15T20:01:58.761Z,100777.91
2023-04-15T20:05:06.873Z,100761.31
2023-04-15T20:08:43.136Z,100738.19
2023-04-15T20:13:59.393Z,100753.88
2023-04-15T20:16:41.780Z,100736.19
2023-04-15T20:19:13.443Z,100739.31
2023-04-15T20:21:43.089Z,100744.88
2023-04-15T20:24:43.436Z,100782.88
2023-04-15T20:36:02.941Z,100751.47
2023-04-15T20:58:23.120Z,100765.03
2023-04-15T21:17:08.626Z,100821.63
2023-04-15T21:19:54.760Z,100775.13
2023-04-15T21:23:07.382Z,100788.69
2023-04-15T21:33:56.386Z,100794.78
2023-04-15T21:39:45.801Z,100805.84
2023-04-15T21:42:19.011Z,100789.41
2023-04-15T21:44:52.964Z,100788.75
2023-04-15T21:50:30.425Z,100803.97
2023-04-15T21:52:58.028Z,100805.06
2023-04-15T21:56:11.378Z,100853.38
2023-04-15T21:58:42.020Z,100845.63
2023-04-15T22:01:19.338Z,100814.34
2023-04-15T22:03:53.614Z,100867.22
2023-04-15T22:06:21.444Z,100821.41
2023-04-15T22:08:56.927Z,100824.41
2023-04-15T22:19:46.765Z,100832.78
2023-04-15T22:22:18.251Z,100825.50
2023-04-15T22:31:54.927Z,100897.25
2023-04-15T22:34:23.711Z,100895.75
2023-04-15T22:36:56.102Z,100888.09
2023-04-15T22:39:26.383Z,100856.63
2023-04-15T22:41:53.586Z,100847.53
2023-04-15T22:44:20.698Z,100851.84
2023-04-15T22:46:48.560Z,100873.91
2023-04-15T22:49:16.918Z,100878.38
2023-04-15T22:51:44.566Z,100854.25
2023-04-15T22:54:26.022Z,100898.38
2023-04-15T22:56:56.143Z,100894.75
2023-04-15T22:59:23.178Z,100866.38
2023-04-15T23:01:52.344Z,100882.59
2023-04-15T23:04:23.108Z,100887.97
2023-04-15T23:06:53.540Z,100916.22
2023-04-15T23:09:22.800Z,100916.59
2023-04-15T23:11:52.748Z,100929.97
2023-04-15T23:14:19.652Z,100924.69
2023-04-15T23:16:46.829Z,100882.94
2023-04-15T23:19:14.531Z,100929.50
2023-04-15T23:22:15.958Z,100936.94
2023-04-15T23:24:44.592Z,100885.53
2023-04-15T23:27:12.046Z,100895.53
2023-04-15T23:29:39.410Z,100879.50
2023-04-15T23:32:06.935Z,100929.06
2023-04-15T23:34:34.083Z,100891.31
2023-04-15T23:37:01.156Z,100934.16
2023-04-15T23:39:28.061Z,100898.97
2023-04-15T23:41:55.038Z,100926.63
2023-04-15T23:44:21.835Z,100910.84
2023-04-15T23:46:48.623Z,100939.88
2023-04-15T23:49:15.601Z,100915.59
2023-04-15T23:51:42.137Z,100913.94
2023-04-15T23:54:08.713Z,100917.31
2023-04-15T23:56:35.343Z,100916.50
2023-04-15T23:59:01.861Z,100906.75
